Hovedside
METAR-TAF:

METAR-TAF

Lufthavner :

Sundsvall-Härnösand, Sverige

Sundsvall Timrå lufthavn

breddegrad: 62-32N, lengdegrad: 017-27E, høyde over havet: 4 m

Gjeldene værobservasjon

Denne rapporten ble laget for 24 minutter siden, klokken 07:20 UTC
Flau vind
Temperatur 2°C
Luftfuktighet 100%
Trykk 1029 hPa
Sikt 10 km eller mer
Brutte skyer i en høyde av 1200 ft
Brutte skyer i en høyde av 1600 ft
Overskyet i en høyde av 2000 ft
lett regn

METAR: ESNN 240720Z 00000KT 9999 -RA BKN012 BKN016 OVC020 02/02 Q1029 R16/09//95

Tid: 09:44 (07:44 UTC)

Varsel

Denne rapporten ble laget for 2 timer og 14 minutter siden, klokken 05:30 UTC
Varsel gyldig fra 24. klokken 06 UTC til 24. klokken 15 UTC
Vind 5 kt fra Sørøst
Sikt 10 km eller mer
Brutte skyer i en høyde av 3000 ft
Sannsynlighet 40%
fra 24. klokken 06 UTC til 24. klokken 12 UTC
Brutte skyer i en høyde av 1400 ft
regnbyger

TAF: ESNN 240530Z 2406/2415 14005KT 9999 BKN030 PROB40 2406/2412 SHRA BKN014

Værobservasjoner og værvarsel for over 4000 flyplasser (METAR- og TAF-rapporter).

Tilgjengelige stasjoner er representert av de røde og gule prikkene på kartet.

Hold musepekeren over prikken for å se navnet på stasjonen.

Klikk så for å se værobservasjoner og -varsler.

For å forandre kartet kan du klikke på den grønne knappen med svart kryss for å zoome inn, på den grønne knappen med strek for å zoome ut, eller på de grønne pilene for å se tilstøtende kart.


METAR-TAF: